Kenduskeag, Maine
Current Conditions -  °F | °C
As of 8:53 AM on Friday 24 Oct 2014 (Local Time) from KBGR Reporting Station
Overcast Overcast  
Wind Chill: 39°   Ceiling: 900
Heat Index: 45°   Visibility: 10mi
Dew Point: 43°   Wind: 14mph
Humidity: 93%   Direction: 360°N
Pressure: 29.68"   Gusts: NA
Location:  44.92°N, 68.93°W
Report Text: KBGR 241253Z 36012KT 10SM OVC009 07/06 A2968 RMK AO2 RAE33 CIG 007V013 SLP049 P0002 T00720061
Loading
Personal Weather Stations






























Interactive Weather Map
Tropical Storm Tracking
New forecast layout! Learn more

10-Day Weather Forecast

Advertisements
Track Severe Weather on mobile